createdAt,value
2018-12-11T00:00:52.603Z,101392.87
2018-12-11T00:03:23.512Z,101407.98
2018-12-11T00:05:53.128Z,101412.35
2018-12-11T00:08:22.392Z,101402.95
2018-12-11T00:10:51.972Z,101409.87
2018-12-11T00:13:22.225Z,101398.42
2018-12-11T00:15:51.988Z,101402.73
2018-12-11T00:18:21.291Z,101412.87
2018-12-11T00:20:50.568Z,101415.20
2018-12-11T00:23:20.028Z,101415.73
2018-12-11T00:25:49.468Z,101409.06
2018-12-11T00:28:18.764Z,101407.66
2018-12-11T00:30:48.503Z,101411.95
2018-12-11T00:33:18.084Z,101406.21
2018-12-11T00:35:47.372Z,101393.28
2018-12-11T00:38:16.826Z,101405.42
2018-12-11T00:40:46.098Z,101408.94
2018-12-11T00:43:15.367Z,101410.75
2018-12-11T00:45:44.948Z,101400.09
2018-12-11T00:48:14.204Z,101412.09
2018-12-11T00:50:43.476Z,101414.06
2018-12-11T00:53:12.735Z,101405.69
2018-12-11T00:55:42.015Z,101405.28
2018-12-11T00:58:11.283Z,101420.39
2018-12-11T01:00:40.603Z,101407.02
2018-12-11T01:03:10.155Z,101419.87
2018-12-11T01:05:39.448Z,101406.87
2018-12-11T01:08:08.717Z,101409.50
2018-12-11T01:10:38.308Z,101419.16
2018-12-11T01:13:07.582Z,101419.48
2018-12-11T01:15:36.863Z,101424.23
2018-12-11T01:18:06.231Z,101418.81
2018-12-11T01:20:35.521Z,101425.48
2018-12-11T01:23:04.796Z,101425.25
2018-12-11T01:25:34.088Z,101417.58
2018-12-11T01:28:03.351Z,101425.25
2018-12-11T01:30:32.627Z,101434.43
2018-12-11T01:33:02.541Z,101437.58
2018-12-11T01:35:31.814Z,101421.36
2018-12-11T01:38:02.672Z,101417.56
2018-12-11T01:40:33.872Z,101419.16
2018-12-11T01:43:03.564Z,101429.42
2018-12-11T01:45:33.437Z,101423.56
2018-12-11T01:48:02.728Z,101429.34
2018-12-11T01:50:32.332Z,101422.23
2018-12-11T01:53:01.668Z,101434.68
2018-12-11T01:55:31.232Z,101427.89
2018-12-11T01:58:02.264Z,101439.75
2018-12-11T02:00:31.556Z,101436.63
2018-12-11T02:03:01.152Z,101446.70
2018-12-11T02:05:30.685Z,101448.48
2018-12-11T02:08:00.269Z,101447.75
2018-12-11T02:10:29.918Z,101444.75
2018-12-11T02:12:59.499Z,101451.38
2018-12-11T02:15:28.779Z,101442.97
2018-12-11T02:17:58.348Z,101449.27
2018-12-11T02:20:27.922Z,101446.67
2018-12-11T02:22:57.492Z,101441.42
2018-12-11T02:25:27.020Z,101449.12
2018-12-11T02:27:56.721Z,101457.28
2018-12-11T02:30:26.335Z,101451.05
2018-12-11T02:32:55.854Z,101447.24
2018-12-11T02:35:25.357Z,101452.58
2018-12-11T02:37:54.643Z,101447.80
2018-12-11T02:40:23.914Z,101446.98
2018-12-11T02:42:53.892Z,101458.23
2018-12-11T02:45:23.401Z,101452.50
2018-12-11T02:47:54.180Z,101449.09
2018-12-11T02:50:23.551Z,101442.44
2018-12-11T02:52:52.828Z,101454.83
2018-12-11T02:55:22.380Z,101448.50
2018-12-11T02:57:51.779Z,101454.69
2018-12-11T03:00:21.040Z,101451.62
2018-12-11T03:02:50.612Z,101452.09
2018-12-11T03:05:20.180Z,101453.84
2018-12-11T03:07:49.757Z,101458.69
2018-12-11T03:10:19.653Z,101453.50
2018-12-11T03:12:48.944Z,101454.77
2018-12-11T03:15:18.516Z,101450.43
2018-12-11T03:17:48.774Z,101454.02
2018-12-11T03:20:19.506Z,101444.95
2018-12-11T03:22:49.020Z,101442.28
2018-12-11T03:25:18.454Z,101443.61
2018-12-11T03:27:49.032Z,101436.66
2018-12-11T03:30:18.597Z,101433.58
2018-12-11T03:32:49.185Z,101433.92
2018-12-11T03:35:18.463Z,101441.55
2018-12-11T03:37:48.784Z,101439.80
2018-12-11T03:40:18.053Z,101439.98
2018-12-11T03:42:48.992Z,101439.39
2018-12-11T03:45:18.557Z,101433.58
2018-12-11T03:47:47.829Z,101437.47
2018-12-11T03:50:17.392Z,101433.36
2018-12-11T03:52:46.676Z,101448.69
2018-12-11T03:55:16.171Z,101443.02
2018-12-11T03:57:45.456Z,101444.77
2018-12-11T04:00:14.957Z,101437.21
2018-12-11T04:02:44.532Z,101432.41
2018-12-11T04:05:13.805Z,101429.36
2018-12-11T04:07:43.075Z,101429.88
2018-12-11T04:10:13.536Z,101430.33
2018-12-11T04:12:42.968Z,101430.73
2018-12-11T04:15:12.589Z,101440.98
2018-12-11T04:17:41.856Z,101438.73
2018-12-11T04:20:11.136Z,101440.47
2018-12-11T04:22:40.404Z,101440.95
2018-12-11T04:25:09.977Z,101441.91
2018-12-11T04:27:39.244Z,101445.91
2018-12-11T04:30:08.837Z,101453.13
2018-12-11T04:32:38.634Z,101456.48
2018-12-11T04:35:07.912Z,101459.67
2018-12-11T04:37:37.561Z,101447.86
2018-12-11T04:40:08.173Z,101455.00
2018-12-11T04:42:37.847Z,101456.85
2018-12-11T04:45:07.247Z,101462.77
2018-12-11T04:47:36.521Z,101463.28
2018-12-11T04:50:06.353Z,101458.36
2018-12-11T04:52:35.616Z,101453.38
2018-12-11T04:55:05.598Z,101458.70
2018-12-11T04:57:34.868Z,101454.30
2018-12-11T05:00:05.468Z,101463.11
2018-12-11T05:02:34.776Z,101454.26
2018-12-11T05:05:04.595Z,101454.77
2018-12-11T05:07:34.063Z,101457.44
2018-12-11T05:10:04.660Z,101451.12
2018-12-11T05:12:35.819Z,101449.45
2018-12-11T05:15:05.607Z,101453.74
2018-12-11T05:17:34.876Z,101452.78
2018-12-11T05:20:04.569Z,101454.75
2018-12-11T05:22:34.981Z,101460.67
2018-12-11T05:25:05.494Z,101457.67
2018-12-11T05:27:35.048Z,101456.41
2018-12-11T05:30:05.833Z,101464.51
2018-12-11T05:32:35.345Z,101465.84
2018-12-11T05:35:05.222Z,101464.58
2018-12-11T05:37:34.720Z,101457.10
2018-12-11T05:40:04.706Z,101463.77
2018-12-11T05:42:34.016Z,101457.72
2018-12-11T05:45:03.297Z,101460.94
2018-12-11T05:47:32.859Z,101454.80
2018-12-11T05:50:02.204Z,101456.64
2018-12-11T05:52:31.485Z,101459.23
2018-12-11T05:55:01.097Z,101462.27
2018-12-11T05:57:30.388Z,101453.53
2018-12-11T05:59:59.961Z,101464.17
2018-12-11T06:02:29.291Z,101469.42
2018-12-11T06:04:58.556Z,101471.24
2018-12-11T06:07:27.946Z,101470.17
2018-12-11T06:09:57.221Z,101470.17
2018-12-11T06:12:26.544Z,101456.85
2018-12-11T06:14:55.825Z,101464.19
2018-12-11T06:17:25.110Z,101479.95
2018-12-11T06:19:55.479Z,101473.56
2018-12-11T06:22:24.890Z,101479.05
2018-12-11T06:24:54.168Z,101489.53
2018-12-11T06:27:23.460Z,101499.23
2018-12-11T06:29:53.736Z,101503.16
2018-12-11T06:32:23.028Z,101499.74
2018-12-11T06:34:52.298Z,101502.41
2018-12-11T06:37:21.604Z,101504.19
2018-12-11T06:39:50.884Z,101499.34
2018-12-11T06:42:20.186Z,101506.86
2018-12-11T06:44:49.476Z,101504.19
2018-12-11T06:47:19.053Z,101503.45
2018-12-11T06:49:48.325Z,101503.41
2018-12-11T06:52:17.935Z,101504.33
2018-12-11T06:54:47.249Z,101510.17
2018-12-11T06:57:16.531Z,101505.88
2018-12-11T06:59:45.809Z,101506.61
2018-12-11T07:02:15.256Z,101512.86
2018-12-11T07:04:44.526Z,101516.15
2018-12-11T07:07:13.817Z,101526.47
2018-12-11T07:09:43.749Z,101519.54
2018-12-11T07:12:13.167Z,101520.05
2018-12-11T07:14:42.423Z,101516.13
2018-12-11T07:17:11.749Z,101519.78
2018-12-11T07:19:41.261Z,101516.23
2018-12-11T07:22:10.557Z,101519.38
2018-12-11T07:24:40.015Z,101520.70
2018-12-11T07:27:09.774Z,101529.96
2018-12-11T07:29:39.182Z,101537.44
2018-12-11T07:32:08.468Z,101539.18
2018-12-11T07:34:37.742Z,101542.70
2018-12-11T07:37:07.058Z,101549.67
2018-12-11T07:39:36.340Z,101549.19
2018-12-11T07:42:05.625Z,101545.87
2018-12-11T07:44:35.110Z,101554.69
2018-12-11T07:47:04.396Z,101549.25
2018-12-11T07:49:33.885Z,101549.43
2018-12-11T07:52:03.297Z,101547.17
2018-12-11T07:54:33.497Z,101549.84
2018-12-11T07:57:03.091Z,101553.46
2018-12-11T07:59:32.370Z,101549.53
2018-12-11T08:02:01.644Z,101552.20
2018-12-11T08:04:31.153Z,101545.53
2018-12-11T08:07:00.725Z,101542.05
2018-12-11T08:09:30.000Z,101538.19
2018-12-11T08:11:59.565Z,101546.11
2018-12-11T08:14:28.868Z,101543.97
2018-12-11T08:16:58.436Z,101551.86
2018-12-11T08:19:27.712Z,101553.02
2018-12-11T08:21:57.288Z,101562.27
2018-12-11T08:24:26.580Z,101561.01
2018-12-11T08:26:55.878Z,101563.95
2018-12-11T08:29:25.379Z,101567.36
2018-12-11T08:31:54.941Z,101571.73
2018-12-11T08:34:24.212Z,101574.14
2018-12-11T08:36:54.032Z,101578.71
2018-12-11T08:39:23.316Z,101580.72
2018-12-11T08:41:52.921Z,101581.83
2018-12-11T08:44:22.398Z,101579.25
2018-12-11T08:46:51.932Z,101585.85
2018-12-11T08:49:21.218Z,101585.23
2018-12-11T08:51:50.523Z,101577.99
2018-12-11T08:54:20.212Z,101578.17
2018-12-11T08:56:49.484Z,101580.30
2018-12-11T08:59:19.049Z,101572.73
2018-12-11T09:01:50.029Z,101582.59
2018-12-11T09:04:19.506Z,101578.78
2018-12-11T09:06:48.785Z,101584.89
2018-12-11T09:09:18.348Z,101594.68
2018-12-11T09:11:47.630Z,101597.83
2018-12-11T09:14:17.196Z,101603.50
2018-12-11T09:16:46.500Z,101598.56
2018-12-11T09:19:15.770Z,101602.83
2018-12-11T09:21:46.894Z,101597.05
2018-12-11T09:24:16.272Z,101596.57
2018-12-11T09:26:45.553Z,101609.84
2018-12-11T09:29:15.136Z,101610.13
2018-12-11T09:31:44.412Z,101613.66
2018-12-11T09:34:13.680Z,101617.06
2018-12-11T09:36:43.666Z,101610.97
2018-12-11T09:39:13.141Z,101614.07
2018-12-11T09:41:42.620Z,101609.72
2018-12-11T09:44:12.149Z,101618.27
2018-12-11T09:46:41.442Z,101620.33
2018-12-11T09:49:10.720Z,101626.89
2018-12-11T09:51:40.055Z,101625.40
2018-12-11T09:54:09.343Z,101623.56
2018-12-11T09:56:38.920Z,101620.56
2018-12-11T09:59:08.675Z,101617.23
2018-12-11T10:01:37.956Z,101612.86
2018-12-11T10:04:07.544Z,101618.92
2018-12-11T10:06:36.833Z,101615.60
2018-12-11T10:09:07.241Z,101611.94
2018-12-11T10:11:37.463Z,101610.95
2018-12-11T10:17:09.725Z,101615.59
2018-12-11T10:19:39.012Z,101606.61
2018-12-11T10:22:08.821Z,101614.73
2018-12-11T10:24:38.416Z,101610.33
2018-12-11T10:27:08.213Z,101611.84
2018-12-11T10:29:37.485Z,101610.91
2018-12-11T10:32:06.808Z,101612.27
2018-12-11T10:34:36.093Z,101614.62
2018-12-11T10:37:05.410Z,101610.08
2018-12-11T10:39:34.686Z,101615.73
2018-12-11T10:42:03.979Z,101612.50
2018-12-11T10:44:33.921Z,101610.48
2018-12-11T10:47:03.236Z,101605.19
2018-12-11T10:49:32.601Z,101599.06
2018-12-11T10:52:02.196Z,101609.44
2018-12-11T10:54:31.648Z,101607.14
2018-12-11T10:57:01.008Z,101615.02
2018-12-11T10:59:30.548Z,101616.72
2018-12-11T11:02:01.821Z,101615.08
2018-12-11T11:04:31.097Z,101614.39
2018-12-11T11:07:00.689Z,101610.73
2018-12-11T11:09:29.980Z,101614.28
2018-12-11T11:11:59.296Z,101617.87
2018-12-11T11:14:28.809Z,101610.47
2018-12-11T11:16:58.108Z,101607.22
2018-12-11T11:19:27.628Z,101611.53
2018-12-11T11:21:56.933Z,101618.02
2018-12-11T11:24:26.905Z,101612.48
2018-12-11T11:26:56.222Z,101608.66
2018-12-11T11:29:25.669Z,101617.31
2018-12-11T11:31:55.099Z,101615.52
2018-12-11T11:34:24.517Z,101606.03
2018-12-11T11:36:54.616Z,101611.12
2018-12-11T11:39:23.896Z,101610.38
2018-12-11T11:41:53.172Z,101616.52
2018-12-11T11:44:22.753Z,101620.36
2018-12-11T11:46:52.028Z,101624.88
2018-12-11T11:49:21.293Z,101625.89
2018-12-11T11:51:50.880Z,101623.50
2018-12-11T11:54:20.161Z,101628.19
2018-12-11T11:56:50.188Z,101630.53
2018-12-11T11:59:19.660Z,101616.11
2018-12-11T12:01:50.040Z,101630.70
2018-12-11T12:04:19.337Z,101634.92
2018-12-11T12:06:50.080Z,101632.97
2018-12-11T12:09:19.365Z,101628.27
2018-12-11T12:11:48.641Z,101632.33
2018-12-11T12:14:17.925Z,101623.63
2018-12-11T12:16:47.210Z,101627.95
2018-12-11T12:19:16.757Z,101625.31
2018-12-11T12:21:46.023Z,101624.84
2018-12-11T12:24:15.316Z,101627.48
2018-12-11T12:26:44.890Z,101628.77
2018-12-11T12:29:14.160Z,101626.01
2018-12-11T12:31:43.758Z,101627.84
2018-12-11T12:37:24.785Z,101627.38
2018-12-11T12:39:54.060Z,101631.09
2018-12-11T12:42:23.360Z,101636.00
2018-12-11T12:44:53.006Z,101625.20
2018-12-11T12:47:23.401Z,101637.79
2018-12-11T12:49:52.998Z,101633.86
2018-12-11T12:52:22.274Z,101636.00
2018-12-11T12:54:52.729Z,101640.10
2018-12-11T12:57:22.817Z,101642.39
2018-12-11T12:59:52.111Z,101642.56
2018-12-11T13:02:21.356Z,101635.38
2018-12-11T13:04:51.297Z,101639.16
2018-12-11T13:07:20.864Z,101640.66
2018-12-11T13:09:50.140Z,101636.83
2018-12-11T13:12:19.728Z,101638.62
2018-12-11T13:14:49.114Z,101633.38
2018-12-11T13:17:18.764Z,101644.59
2018-12-11T13:19:48.062Z,101635.80
2018-12-11T13:22:17.334Z,101645.70
2018-12-11T13:24:46.629Z,101639.44
2018-12-11T13:27:15.962Z,101639.54
2018-12-11T13:29:45.246Z,101644.81
2018-12-11T13:32:14.808Z,101638.98
2018-12-11T13:34:44.385Z,101638.75
2018-12-11T13:37:13.901Z,101651.38
2018-12-11T13:39:43.188Z,101656.19
2018-12-11T13:42:12.704Z,101648.03
2018-12-11T13:44:42.082Z,101651.97
2018-12-11T13:47:11.577Z,101653.67
2018-12-11T13:49:40.872Z,101648.91
2018-12-11T13:52:11.018Z,101658.95
2018-12-11T13:54:40.297Z,101653.44
2018-12-11T13:57:09.580Z,101656.92
2018-12-11T13:59:38.952Z,101662.77
2018-12-11T14:02:08.480Z,101656.87
2018-12-11T14:04:38.065Z,101657.97
2018-12-11T14:07:08.171Z,101660.23
2018-12-11T14:09:40.181Z,101658.59
2018-12-11T14:12:10.176Z,101659.19
2018-12-11T14:14:39.459Z,101660.27
2018-12-11T14:17:09.036Z,101659.41
2018-12-11T14:19:38.433Z,101660.81
2018-12-11T14:22:11.834Z,101642.84
2018-12-11T14:24:41.492Z,101657.52
2018-12-11T14:27:10.783Z,101660.53
2018-12-11T14:29:40.237Z,101655.10
2018-12-11T14:32:09.885Z,101647.30
2018-12-11T14:34:39.185Z,101655.04
2018-12-11T14:37:08.465Z,101657.37
2018-12-11T14:39:37.760Z,101653.59
2018-12-11T14:42:07.221Z,101657.48
2018-12-11T14:44:36.529Z,101659.92
2018-12-11T14:47:05.812Z,101658.98
2018-12-11T14:49:35.090Z,101661.97
2018-12-11T14:52:05.525Z,101660.93
2018-12-11T14:54:34.760Z,101670.32
2018-12-11T14:57:04.106Z,101670.50
2018-12-11T14:59:33.372Z,101671.13
2018-12-11T15:02:02.660Z,101663.33
2018-12-11T15:04:32.180Z,101662.03
2018-12-11T15:07:01.808Z,101667.80
2018-12-11T15:09:40.867Z,101667.89
2018-12-11T15:12:10.184Z,101676.02
2018-12-11T15:14:40.464Z,101672.78
2018-12-11T15:17:10.035Z,101680.98
2018-12-11T15:19:39.308Z,101685.41
2018-12-11T15:22:08.711Z,101690.77
2018-12-11T15:24:38.124Z,101687.20
2018-12-11T15:27:07.523Z,101689.97
2018-12-11T15:29:36.789Z,101689.17
2018-12-11T15:32:07.996Z,101697.70
2018-12-11T15:34:37.603Z,101701.87
2018-12-11T15:37:06.920Z,101707.46
2018-12-11T15:39:37.204Z,101701.38
2018-12-11T15:42:06.483Z,101710.25
2018-12-11T15:50:55.403Z,101704.71
2018-12-11T15:53:25.631Z,101705.55
2018-12-11T15:55:54.923Z,101710.76
2018-12-11T15:58:25.032Z,101713.88
2018-12-11T16:00:54.827Z,101710.60
2018-12-11T16:19:11.856Z,101726.57
2018-12-11T16:21:41.164Z,101730.78
2018-12-11T16:24:10.419Z,101740.68
2018-12-11T16:26:39.710Z,101734.95
2018-12-11T16:29:09.063Z,101740.68
2018-12-11T16:31:38.323Z,101735.00
2018-12-11T16:34:08.675Z,101739.09
2018-12-11T16:36:38.343Z,101741.36
2018-12-11T16:39:07.636Z,101746.47
2018-12-11T16:41:36.907Z,101751.53
2018-12-11T16:44:06.192Z,101754.41
2018-12-11T16:46:35.452Z,101760.28
2018-12-11T16:49:05.351Z,101757.69
2018-12-11T16:51:34.620Z,101753.02
2018-12-11T16:54:03.903Z,101761.69
2018-12-11T16:56:33.528Z,101760.13
2018-12-11T16:59:02.837Z,101768.42
2018-12-11T17:01:32.117Z,101760.86
2018-12-11T17:04:01.384Z,101767.81
2018-12-11T17:06:30.639Z,101771.94
2018-12-11T17:09:00.268Z,101762.84
2018-12-11T17:11:29.628Z,101765.19
2018-12-11T17:13:59.199Z,101773.84
2018-12-11T17:16:29.837Z,101780.11
2018-12-11T17:18:59.112Z,101779.33
2018-12-11T17:21:28.444Z,101781.63
2018-12-11T17:23:57.817Z,101782.78
2018-12-11T17:26:27.860Z,101788.23
2018-12-11T17:28:57.151Z,101796.24
2018-12-11T17:31:26.704Z,101794.98
2018-12-11T17:33:56.981Z,101795.91
2018-12-11T17:36:26.464Z,101798.58
2018-12-11T17:38:55.740Z,101800.43
2018-12-11T17:41:25.055Z,101809.45
2018-12-11T17:43:54.623Z,101813.11
2018-12-11T17:46:24.125Z,101808.28
2018-12-11T17:48:53.537Z,101805.38
2018-12-11T17:51:22.804Z,101813.29
2018-12-11T17:53:52.582Z,101820.08
2018-12-11T17:56:22.101Z,101821.59
2018-12-11T17:58:51.380Z,101814.16
2018-12-11T18:01:22.182Z,101810.64
2018-12-11T18:22:47.464Z,101830.28
2018-12-11T18:25:16.760Z,101826.58
2018-12-11T18:27:46.037Z,101832.25
2018-12-11T18:30:16.551Z,101834.06
2018-12-11T18:32:46.077Z,101829.17
2018-12-11T18:35:16.992Z,101830.84
2018-12-11T18:37:46.291Z,101832.08
2018-12-11T18:40:15.613Z,101832.48
2018-12-11T18:42:44.881Z,101833.75
2018-12-11T18:45:14.705Z,101834.56
2018-12-11T18:47:49.727Z,101837.54
2018-12-11T18:50:21.189Z,101843.67
2018-12-11T18:52:46.697Z,101840.95
2018-12-11T18:55:15.987Z,101842.56
2018-12-11T18:57:45.260Z,101841.53
2018-12-11T19:00:15.196Z,101847.31
2018-12-11T19:05:53.864Z,101853.96
2018-12-11T19:08:23.412Z,101859.30
2018-12-11T19:10:53.031Z,101849.88
2018-12-11T19:13:23.951Z,101855.48
2018-12-11T19:15:54.504Z,101849.55
2018-12-11T19:18:24.127Z,101853.52
2018-12-11T19:20:54.161Z,101853.56
2018-12-11T19:23:26.936Z,101855.97
2018-12-11T19:25:56.549Z,101861.31
2018-12-11T19:28:25.831Z,101860.80
2018-12-11T19:30:55.342Z,101862.91
2018-12-11T19:33:26.064Z,101874.42
2018-12-11T19:35:55.416Z,101870.89
2018-12-11T19:38:26.405Z,101873.57
2018-12-11T19:44:11.668Z,101877.17
2018-12-11T19:46:41.372Z,101878.16
2018-12-11T19:49:10.961Z,101877.76
2018-12-11T19:51:40.752Z,101881.25
2018-12-11T19:54:10.108Z,101889.60
2018-12-11T19:56:40.499Z,101880.25
2018-12-11T19:59:09.852Z,101879.25
2018-12-11T20:01:39.126Z,101885.41
2018-12-11T20:04:09.013Z,101888.61
2018-12-11T20:06:38.319Z,101888.27
2018-12-11T20:09:08.123Z,101888.78
2018-12-11T20:11:38.402Z,101884.44
2018-12-11T20:14:07.992Z,101889.27
2018-12-11T20:16:37.315Z,101888.67
2018-12-11T20:19:06.596Z,101888.71
2018-12-11T20:21:36.092Z,101894.98
2018-12-11T20:24:05.975Z,101894.98
2018-12-11T20:26:39.278Z,101895.95
2018-12-11T20:29:06.500Z,101900.51
2018-12-11T20:31:35.945Z,101898.42
2018-12-11T20:34:05.528Z,101898.60
2018-12-11T20:36:35.148Z,101906.62
2018-12-11T20:39:05.340Z,101902.23
2018-12-11T20:41:35.543Z,101900.42
2018-12-11T20:44:05.172Z,101908.95
2018-12-11T20:46:34.468Z,101907.27
2018-12-11T20:49:04.849Z,101905.08
2018-12-11T20:51:34.476Z,101897.58
2018-12-11T20:54:04.376Z,101897.28
2018-12-11T20:56:33.988Z,101904.51
2018-12-11T20:59:03.523Z,101899.27
2018-12-11T21:01:33.097Z,101901.08
2018-12-11T21:04:02.376Z,101909.13
2018-12-11T21:06:32.032Z,101907.80
2018-12-11T21:09:01.339Z,101914.88
2018-12-11T21:11:31.088Z,101911.39
2018-12-11T21:14:00.405Z,101918.89
2018-12-11T21:16:29.971Z,101924.23
2018-12-11T21:18:59.471Z,101933.52
2018-12-11T21:21:29.055Z,101932.55
2018-12-11T21:23:58.631Z,101932.97
2018-12-11T21:26:27.937Z,101933.34
2018-12-11T21:28:57.228Z,101932.42
2018-12-11T21:31:26.548Z,101940.91
2018-12-11T21:33:56.144Z,101935.23
2018-12-11T21:36:25.424Z,101941.94
2018-12-11T21:38:55.025Z,101943.34
2018-12-11T21:41:24.312Z,101945.50
2018-12-11T21:43:53.622Z,101945.44
2018-12-11T21:46:23.218Z,101943.24
2018-12-11T21:48:52.496Z,101942.86
2018-12-11T21:51:22.107Z,101943.00
2018-12-11T21:53:51.625Z,101942.76
2018-12-11T21:56:21.198Z,101945.25
2018-12-11T21:58:50.490Z,101942.41
2018-12-11T22:01:20.053Z,101946.98
2018-12-11T22:03:50.840Z,101952.36
2018-12-11T22:06:20.415Z,101955.00
2018-12-11T22:08:49.703Z,101951.41
2018-12-11T22:11:18.976Z,101954.59
2018-12-11T22:13:48.268Z,101959.45
2018-12-11T22:16:17.540Z,101959.41
2018-12-11T22:35:18.254Z,101944.33
2018-12-11T22:37:47.539Z,101945.70
2018-12-11T22:40:16.846Z,101948.37
2018-12-11T22:42:46.113Z,101947.00
2018-12-11T22:45:15.392Z,101950.08
2018-12-11T22:47:44.664Z,101953.78
2018-12-11T22:50:14.244Z,101957.02
2018-12-11T22:52:43.515Z,101958.87
2018-12-11T22:55:12.876Z,101962.37
2018-12-11T22:57:42.244Z,101957.53
2018-12-11T23:00:11.525Z,101954.45
2018-12-11T23:02:42.741Z,101960.27
2018-12-11T23:05:12.157Z,101958.08
2018-12-11T23:07:41.472Z,101967.05
2018-12-11T23:10:14.907Z,101963.52
2018-12-11T23:12:44.376Z,101964.34
2018-12-11T23:15:13.756Z,101963.01
2018-12-11T23:17:43.027Z,101968.80
2018-12-11T23:20:12.740Z,101976.39
2018-12-11T23:22:42.326Z,101976.36
2018-12-11T23:25:11.668Z,101979.95
2018-12-11T23:27:41.002Z,101978.55
2018-12-11T23:30:11.084Z,101979.03
2018-12-11T23:32:40.360Z,101980.36
2018-12-11T23:35:09.972Z,101991.48
2018-12-11T23:37:39.552Z,101981.83
2018-12-11T23:40:08.851Z,101981.07
2018-12-11T23:42:38.331Z,101979.89
2018-12-11T23:45:08.928Z,101981.73
2018-12-11T23:47:38.356Z,101979.16
2018-12-11T23:50:07.640Z,101984.98
2018-12-11T23:52:37.216Z,101981.48
2018-12-11T23:55:06.663Z,101976.66
2018-12-11T23:57:35.966Z,101982.91
